sensor_id;sensor_type;location;lat;lon;timestamp;P1;durP1;ratioP1;P2;durP2;ratioP2
36001;SDS011;22070;50.922;5.430;2023-04-25T00:00:45;15.98;;;3.80;;
36001;SDS011;22070;50.922;5.430;2023-04-25T00:03:11;15.48;;;3.50;;
36001;SDS011;22070;50.922;5.430;2023-04-25T00:05:36;14.10;;;3.35;;
36001;SDS011;22070;50.922;5.430;2023-04-25T00:08:03;16.97;;;2.90;;
36001;SDS011;22070;50.922;5.430;2023-04-25T00:12:55;19.90;;;4.60;;
36001;SDS011;22070;50.922;5.430;2023-04-25T00:15:20;15.95;;;3.38;;
36001;SDS011;22070;50.922;5.430;2023-04-25T00:17:46;16.23;;;4.55;;
36001;SDS011;22070;50.922;5.430;2023-04-25T00:20:12;12.80;;;4.27;;
36001;SDS011;22070;50.922;5.430;2023-04-25T00:22:38;11.98;;;4.03;;
36001;SDS011;22070;50.922;5.430;2023-04-25T00:25:04;15.93;;;3.75;;
36001;SDS011;22070;50.922;5.430;2023-04-25T00:27:31;20.35;;;4.00;;
36001;SDS011;22070;50.922;5.430;2023-04-25T00:29:57;8.98;;;3.72;;
36001;SDS011;22070;50.922;5.430;2023-04-25T00:32:22;11.43;;;3.40;;
36001;SDS011;22070;50.922;5.430;2023-04-25T00:34:48;21.02;;;3.83;;
36001;SDS011;22070;50.922;5.430;2023-04-25T00:37:14;10.88;;;3.78;;
36001;SDS011;22070;50.922;5.430;2023-04-25T00:39:40;18.45;;;4.18;;
36001;SDS011;22070;50.922;5.430;2023-04-25T00:42:05;14.43;;;3.37;;
36001;SDS011;22070;50.922;5.430;2023-04-25T00:44:31;17.60;;;3.90;;
36001;SDS011;22070;50.922;5.430;2023-04-25T00:46:58;16.63;;;3.85;;
36001;SDS011;22070;50.922;5.430;2023-04-25T00:49:25;18.15;;;3.88;;
36001;SDS011;22070;50.922;5.430;2023-04-25T00:51:51;17.83;;;3.60;;
36001;SDS011;22070;50.922;5.430;2023-04-25T00:54:16;14.88;;;3.95;;
36001;SDS011;22070;50.922;5.430;2023-04-25T00:56:42;17.60;;;3.85;;
36001;SDS011;22070;50.922;5.430;2023-04-25T00:59:10;12.77;;;3.40;;
36001;SDS011;22070;50.922;5.430;2023-04-25T01:01:36;18.58;;;3.63;;
36001;SDS011;22070;50.922;5.430;2023-04-25T01:04:02;16.60;;;4.22;;
36001;SDS011;22070;50.922;5.430;2023-04-25T01:06:28;17.27;;;4.15;;
36001;SDS011;22070;50.922;5.430;2023-04-25T01:08:54;18.33;;;4.03;;
36001;SDS011;22070;50.922;5.430;2023-04-25T01:11:20;15.50;;;4.40;;
36001;SDS011;22070;50.922;5.430;2023-04-25T01:13:45;17.98;;;4.22;;
36001;SDS011;22070;50.922;5.430;2023-04-25T01:16:11;12.48;;;3.35;;
36001;SDS011;22070;50.922;5.430;2023-04-25T01:18:40;15.65;;;3.60;;
36001;SDS011;22070;50.922;5.430;2023-04-25T01:21:07;15.05;;;4.10;;
36001;SDS011;22070;50.922;5.430;2023-04-25T01:23:35;17.35;;;3.97;;
36001;SDS011;22070;50.922;5.430;2023-04-25T01:26:01;17.88;;;4.10;;
36001;SDS011;22070;50.922;5.430;2023-04-25T01:28:27;12.77;;;3.42;;
36001;SDS011;22070;50.922;5.430;2023-04-25T01:30:54;20.75;;;4.38;;
36001;SDS011;22070;50.922;5.430;2023-04-25T01:33:21;21.38;;;4.00;;
36001;SDS011;22070;50.922;5.430;2023-04-25T01:35:47;13.97;;;3.67;;
36001;SDS011;22070;50.922;5.430;2023-04-25T01:38:13;15.90;;;3.35;;
36001;SDS011;22070;50.922;5.430;2023-04-25T01:40:39;11.87;;;3.70;;
36001;SDS011;22070;50.922;5.430;2023-04-25T01:43:06;14.80;;;4.13;;
36001;SDS011;22070;50.922;5.430;2023-04-25T01:45:33;19.10;;;3.97;;
36001;SDS011;22070;50.922;5.430;2023-04-25T01:48:01;16.35;;;3.92;;
36001;SDS011;22070;50.922;5.430;2023-04-25T01:50:27;18.45;;;4.15;;
36001;SDS011;22070;50.922;5.430;2023-04-25T01:52:54;17.42;;;3.85;;
36001;SDS011;22070;50.922;5.430;2023-04-25T01:55:20;16.17;;;4.05;;
36001;SDS011;22070;50.922;5.430;2023-04-25T01:57:46;14.48;;;3.63;;
36001;SDS011;22070;50.922;5.430;2023-04-25T02:00:12;17.90;;;4.10;;
36001;SDS011;22070;50.922;5.430;2023-04-25T02:02:38;19.52;;;4.15;;
36001;SDS011;22070;50.922;5.430;2023-04-25T02:05:03;20.13;;;3.80;;
36001;SDS011;22070;50.922;5.430;2023-04-25T02:07:30;19.92;;;3.88;;
36001;SDS011;22070;50.922;5.430;2023-04-25T02:09:55;11.85;;;3.60;;
36001;SDS011;22070;50.922;5.430;2023-04-25T02:12:21;27.48;;;4.18;;
36001;SDS011;22070;50.922;5.430;2023-04-25T02:14:46;10.88;;;2.90;;
36001;SDS011;22070;50.922;5.430;2023-04-25T02:17:12;18.25;;;4.07;;
36001;SDS011;22070;50.922;5.430;2023-04-25T02:19:38;16.70;;;4.25;;
36001;SDS011;22070;50.922;5.430;2023-04-25T02:22:04;25.17;;;4.57;;
36001;SDS011;22070;50.922;5.430;2023-04-25T02:24:29;12.65;;;3.63;;
36001;SDS011;22070;50.922;5.430;2023-04-25T02:29:22;16.17;;;3.37;;
36001;SDS011;22070;50.922;5.430;2023-04-25T02:31:48;12.02;;;3.50;;
36001;SDS011;22070;50.922;5.430;2023-04-25T02:34:13;23.88;;;4.65;;
36001;SDS011;22070;50.922;5.430;2023-04-25T02:36:39;14.15;;;3.60;;
36001;SDS011;22070;50.922;5.430;2023-04-25T02:39:05;15.33;;;3.87;;
36001;SDS011;22070;50.922;5.430;2023-04-25T02:41:30;20.42;;;4.47;;
36001;SDS011;22070;50.922;5.430;2023-04-25T02:43:56;21.83;;;3.60;;
36001;SDS011;22070;50.922;5.430;2023-04-25T02:46:22;12.68;;;4.15;;
36001;SDS011;22070;50.922;5.430;2023-04-25T02:48:47;16.37;;;4.37;;
36001;SDS011;22070;50.922;5.430;2023-04-25T02:51:13;15.98;;;4.07;;
36001;SDS011;22070;50.922;5.430;2023-04-25T02:53:41;18.38;;;3.80;;
36001;SDS011;22070;50.922;5.430;2023-04-25T02:56:07;11.80;;;3.60;;
36001;SDS011;22070;50.922;5.430;2023-04-25T02:58:32;20.92;;;4.22;;
36001;SDS011;22070;50.922;5.430;2023-04-25T03:00:58;11.45;;;3.55;;
36001;SDS011;22070;50.922;5.430;2023-04-25T03:03:24;19.25;;;4.25;;
36001;SDS011;22070;50.922;5.430;2023-04-25T03:05:49;15.82;;;4.28;;
36001;SDS011;22070;50.922;5.430;2023-04-25T03:08:16;13.13;;;3.45;;
36001;SDS011;22070;50.922;5.430;2023-04-25T03:10:43;15.32;;;4.32;;
36001;SDS011;22070;50.922;5.430;2023-04-25T03:13:09;18.88;;;4.88;;
36001;SDS011;22070;50.922;5.430;2023-04-25T03:15:35;12.23;;;4.00;;
36001;SDS011;22070;50.922;5.430;2023-04-25T03:18:01;17.10;;;4.35;;
36001;SDS011;22070;50.922;5.430;2023-04-25T03:20:27;16.13;;;3.88;;
36001;SDS011;22070;50.922;5.430;2023-04-25T03:22:52;17.05;;;4.38;;
36001;SDS011;22070;50.922;5.430;2023-04-25T03:25:18;16.73;;;4.00;;
36001;SDS011;22070;50.922;5.430;2023-04-25T03:27:44;19.33;;;4.55;;
36001;SDS011;22070;50.922;5.430;2023-04-25T03:30:10;18.25;;;4.60;;
36001;SDS011;22070;50.922;5.430;2023-04-25T03:32:36;14.15;;;4.65;;
36001;SDS011;22070;50.922;5.430;2023-04-25T03:35:02;17.23;;;4.80;;
36001;SDS011;22070;50.922;5.430;2023-04-25T03:37:28;20.80;;;5.27;;
36001;SDS011;22070;50.922;5.430;2023-04-25T03:39:54;24.80;;;5.65;;
36001;SDS011;22070;50.922;5.430;2023-04-25T03:42:19;18.73;;;5.10;;
36001;SDS011;22070;50.922;5.430;2023-04-25T03:44:47;21.08;;;4.80;;
36001;SDS011;22070;50.922;5.430;2023-04-25T03:47:13;20.23;;;5.03;;
36001;SDS011;22070;50.922;5.430;2023-04-25T03:49:39;25.88;;;5.47;;
36001;SDS011;22070;50.922;5.430;2023-04-25T03:52:05;18.13;;;4.75;;
36001;SDS011;22070;50.922;5.430;2023-04-25T03:54:30;13.07;;;3.25;;
36001;SDS011;22070;50.922;5.430;2023-04-25T03:56:56;14.73;;;4.53;;
36001;SDS011;22070;50.922;5.430;2023-04-25T03:59:22;13.60;;;4.20;;
36001;SDS011;22070;50.922;5.430;2023-04-25T04:01:47;18.83;;;5.10;;
36001;SDS011;22070;50.922;5.430;2023-04-25T04:04:13;25.25;;;5.50;;
36001;SDS011;22070;50.922;5.430;2023-04-25T04:06:39;14.88;;;5.28;;
36001;SDS011;22070;50.922;5.430;2023-04-25T04:09:04;16.48;;;5.20;;
36001;SDS011;22070;50.922;5.430;2023-04-25T04:11:34;19.63;;;4.60;;
36001;SDS011;22070;50.922;5.430;2023-04-25T04:14:01;18.25;;;4.68;;
36001;SDS011;22070;50.922;5.430;2023-04-25T04:16:27;20.08;;;5.10;;
36001;SDS011;22070;50.922;5.430;2023-04-25T04:18:53;20.48;;;5.18;;
36001;SDS011;22070;50.922;5.430;2023-04-25T04:21:18;26.77;;;5.75;;
36001;SDS011;22070;50.922;5.430;2023-04-25T04:23:44;24.35;;;6.30;;
36001;SDS011;22070;50.922;5.430;2023-04-25T04:28:37;20.67;;;5.78;;
36001;SDS011;22070;50.922;5.430;2023-04-25T04:31:03;22.67;;;6.30;;
36001;SDS011;22070;50.922;5.430;2023-04-25T04:33:29;18.38;;;6.35;;
36001;SDS011;22070;50.922;5.430;2023-04-25T04:38:21;16.80;;;4.13;;
36001;SDS011;22070;50.922;5.430;2023-04-25T04:40:47;23.75;;;5.90;;
36001;SDS011;22070;50.922;5.430;2023-04-25T04:43:13;23.40;;;6.47;;
36001;SDS011;22070;50.922;5.430;2023-04-25T04:45:42;24.58;;;6.40;;
36001;SDS011;22070;50.922;5.430;2023-04-25T04:48:08;19.95;;;6.15;;
36001;SDS011;22070;50.922;5.430;2023-04-25T04:50:33;21.33;;;6.03;;
36001;SDS011;22070;50.922;5.430;2023-04-25T04:53:00;24.70;;;5.85;;
36001;SDS011;22070;50.922;5.430;2023-04-25T04:55:26;19.25;;;4.97;;
36001;SDS011;22070;50.922;5.430;2023-04-25T04:57:52;18.70;;;5.50;;
36001;SDS011;22070;50.922;5.430;2023-04-25T05:00:18;17.15;;;5.25;;
36001;SDS011;22070;50.922;5.430;2023-04-25T05:02:44;13.88;;;5.03;;
36001;SDS011;22070;50.922;5.430;2023-04-25T05:05:09;16.92;;;4.57;;
36001;SDS011;22070;50.922;5.430;2023-04-25T05:07:35;21.92;;;4.30;;
36001;SDS011;22070;50.922;5.430;2023-04-25T05:10:01;19.17;;;4.63;;
36001;SDS011;22070;50.922;5.430;2023-04-25T05:12:27;22.85;;;4.28;;
36001;SDS011;22070;50.922;5.430;2023-04-25T05:14:52;19.77;;;4.30;;
36001;SDS011;22070;50.922;5.430;2023-04-25T05:17:18;20.50;;;4.80;;
36001;SDS011;22070;50.922;5.430;2023-04-25T05:19:44;18.08;;;4.18;;
36001;SDS011;22070;50.922;5.430;2023-04-25T05:22:09;15.43;;;3.83;;
36001;SDS011;22070;50.922;5.430;2023-04-25T05:24:35;20.00;;;4.20;;
36001;SDS011;22070;50.922;5.430;2023-04-25T05:27:01;16.55;;;3.83;;
36001;SDS011;22070;50.922;5.430;2023-04-25T05:29:27;11.13;;;3.40;;
36001;SDS011;22070;50.922;5.430;2023-04-25T05:31:52;14.98;;;3.85;;
36001;SDS011;22070;50.922;5.430;2023-04-25T05:34:18;17.00;;;3.85;;
36001;SDS011;22070;50.922;5.430;2023-04-25T05:36:44;15.00;;;3.92;;
36001;SDS011;22070;50.922;5.430;2023-04-25T05:39:13;22.23;;;4.22;;
36001;SDS011;22070;50.922;5.430;2023-04-25T05:41:40;15.02;;;3.55;;
36001;SDS011;22070;50.922;5.430;2023-04-25T05:44:05;17.05;;;4.10;;
36001;SDS011;22070;50.922;5.430;2023-04-25T05:46:31;10.13;;;2.72;;
36001;SDS011;22070;50.922;5.430;2023-04-25T05:48:57;21.02;;;3.42;;
36001;SDS011;22070;50.922;5.430;2023-04-25T05:51:22;10.30;;;3.47;;
36001;SDS011;22070;50.922;5.430;2023-04-25T05:53:48;18.58;;;3.38;;
36001;SDS011;22070;50.922;5.430;2023-04-25T05:56:13;15.77;;;2.77;;
36001;SDS011;22070;50.922;5.430;2023-04-25T05:58:39;22.27;;;3.85;;
36001;SDS011;22070;50.922;5.430;2023-04-25T06:01:05;17.55;;;3.63;;
36001;SDS011;22070;50.922;5.430;2023-04-25T06:03:30;20.75;;;3.80;;
36001;SDS011;22070;50.922;5.430;2023-04-25T06:05:56;18.33;;;3.40;;
36001;SDS011;22070;50.922;5.430;2023-04-25T06:08:22;14.30;;;3.63;;
36001;SDS011;22070;50.922;5.430;2023-04-25T06:10:47;12.88;;;3.30;;
36001;SDS011;22070;50.922;5.430;2023-04-25T06:13:13;22.05;;;3.63;;
36001;SDS011;22070;50.922;5.430;2023-04-25T06:15:40;13.57;;;3.33;;
36001;SDS011;22070;50.922;5.430;2023-04-25T06:18:06;21.15;;;3.17;;
36001;SDS011;22070;50.922;5.430;2023-04-25T06:20:32;15.88;;;2.70;;
36001;SDS011;22070;50.922;5.430;2023-04-25T06:22:57;11.90;;;3.35;;
36001;SDS011;22070;50.922;5.430;2023-04-25T06:25:23;15.10;;;3.47;;
36001;SDS011;22070;50.922;5.430;2023-04-25T06:27:49;14.57;;;3.38;;
36001;SDS011;22070;50.922;5.430;2023-04-25T06:30:14;16.48;;;3.28;;
36001;SDS011;22070;50.922;5.430;2023-04-25T06:32:41;16.38;;;3.40;;
36001;SDS011;22070;50.922;5.430;2023-04-25T06:35:07;17.75;;;4.45;;
36001;SDS011;22070;50.922;5.430;2023-04-25T06:37:33;19.67;;;3.40;;
36001;SDS011;22070;50.922;5.430;2023-04-25T06:39:58;19.70;;;3.67;;
36001;SDS011;22070;50.922;5.430;2023-04-25T06:42:24;14.50;;;3.00;;
36001;SDS011;22070;50.922;5.430;2023-04-25T06:44:50;18.98;;;3.40;;
36001;SDS011;22070;50.922;5.430;2023-04-25T06:47:15;13.25;;;4.07;;
36001;SDS011;22070;50.922;5.430;2023-04-25T06:49:41;12.90;;;3.20;;
36001;SDS011;22070;50.922;5.430;2023-04-25T06:52:07;11.02;;;3.20;;
36001;SDS011;22070;50.922;5.430;2023-04-25T06:54:33;18.48;;;3.10;;
36001;SDS011;22070;50.922;5.430;2023-04-25T06:56:59;16.60;;;3.22;;
36001;SDS011;22070;50.922;5.430;2023-04-25T06:59:25;13.02;;;3.15;;
36001;SDS011;22070;50.922;5.430;2023-04-25T07:01:51;22.52;;;3.47;;
36001;SDS011;22070;50.922;5.430;2023-04-25T07:04:17;17.52;;;3.42;;
36001;SDS011;22070;50.922;5.430;2023-04-25T07:06:42;12.60;;;2.97;;
36001;SDS011;22070;50.922;5.430;2023-04-25T07:09:08;13.18;;;3.58;;
36001;SDS011;22070;50.922;5.430;2023-04-25T07:11:37;20.15;;;4.45;;
36001;SDS011;22070;50.922;5.430;2023-04-25T07:14:03;16.92;;;3.00;;
36001;SDS011;22070;50.922;5.430;2023-04-25T07:16:29;9.57;;;2.45;;
36001;SDS011;22070;50.922;5.430;2023-04-25T07:18:55;11.75;;;3.05;;
36001;SDS011;22070;50.922;5.430;2023-04-25T07:21:20;16.13;;;3.50;;
36001;SDS011;22070;50.922;5.430;2023-04-25T07:23:46;14.70;;;3.03;;
36001;SDS011;22070;50.922;5.430;2023-04-25T07:26:12;14.33;;;3.07;;
36001;SDS011;22070;50.922;5.430;2023-04-25T07:28:38;25.90;;;6.00;;
36001;SDS011;22070;50.922;5.430;2023-04-25T07:31:03;15.77;;;3.15;;
36001;SDS011;22070;50.922;5.430;2023-04-25T07:33:30;18.85;;;3.90;;
36001;SDS011;22070;50.922;5.430;2023-04-25T07:35:55;18.70;;;3.13;;
36001;SDS011;22070;50.922;5.430;2023-04-25T07:38:21;17.90;;;3.27;;
36001;SDS011;22070;50.922;5.430;2023-04-25T07:40:47;14.05;;;2.60;;
36001;SDS011;22070;50.922;5.430;2023-04-25T07:43:14;15.02;;;2.90;;
36001;SDS011;22070;50.922;5.430;2023-04-25T07:45:42;14.95;;;3.25;;
36001;SDS011;22070;50.922;5.430;2023-04-25T07:48:08;12.32;;;3.47;;
36001;SDS011;22070;50.922;5.430;2023-04-25T07:50:33;13.60;;;3.42;;
36001;SDS011;22070;50.922;5.430;2023-04-25T07:52:59;16.15;;;3.05;;
36001;SDS011;22070;50.922;5.430;2023-04-25T07:55:25;11.50;;;3.17;;
36001;SDS011;22070;50.922;5.430;2023-04-25T07:57:51;17.45;;;2.75;;
36001;SDS011;22070;50.922;5.430;2023-04-25T08:00:16;11.45;;;2.38;;
36001;SDS011;22070;50.922;5.430;2023-04-25T08:02:42;14.40;;;2.70;;
36001;SDS011;22070;50.922;5.430;2023-04-25T08:05:08;10.18;;;2.33;;
36001;SDS011;22070;50.922;5.430;2023-04-25T08:07:36;10.90;;;2.60;;
36001;SDS011;22070;50.922;5.430;2023-04-25T08:10:04;11.55;;;2.67;;
36001;SDS011;22070;50.922;5.430;2023-04-25T08:14:56;13.40;;;2.30;;
36001;SDS011;22070;50.922;5.430;2023-04-25T08:17:21;11.43;;;2.13;;
36001;SDS011;22070;50.922;5.430;2023-04-25T08:35:08;11.82;;;2.25;;
36001;SDS011;22070;50.922;5.430;2023-04-25T08:37:34;8.90;;;2.00;;
36001;SDS011;22070;50.922;5.430;2023-04-25T08:39:59;10.65;;;2.42;;
36001;SDS011;22070;50.922;5.430;2023-04-25T08:42:26;12.57;;;2.50;;
36001;SDS011;22070;50.922;5.430;2023-04-25T08:44:53;8.57;;;2.30;;
36001;SDS011;22070;50.922;5.430;2023-04-25T08:47:21;9.38;;;1.92;;
36001;SDS011;22070;50.922;5.430;2023-04-25T08:49:47;8.25;;;2.10;;
36001;SDS011;22070;50.922;5.430;2023-04-25T08:52:14;9.50;;;2.20;;
36001;SDS011;22070;50.922;5.430;2023-04-25T08:54:49;12.82;;;2.28;;
36001;SDS011;22070;50.922;5.430;2023-04-25T08:57:17;7.07;;;2.00;;
36001;SDS011;22070;50.922;5.430;2023-04-25T09:02:11;8.57;;;1.98;;
36001;SDS011;22070;50.922;5.430;2023-04-25T09:04:43;9.60;;;1.98;;
36001;SDS011;22070;50.922;5.430;2023-04-25T09:07:09;7.50;;;2.45;;
36001;SDS011;22070;50.922;5.430;2023-04-25T09:09:35;7.90;;;2.05;;
36001;SDS011;22070;50.922;5.430;2023-04-25T09:12:01;7.50;;;2.13;;
36001;SDS011;22070;50.922;5.430;2023-04-25T09:14:26;9.40;;;2.40;;
36001;SDS011;22070;50.922;5.430;2023-04-25T09:19:22;13.75;;;3.35;;
36001;SDS011;22070;50.922;5.430;2023-04-25T09:21:50;12.15;;;3.30;;
36001;SDS011;22070;50.922;5.430;2023-04-25T09:24:17;13.05;;;4.28;;
36001;SDS011;22070;50.922;5.430;2023-04-25T09:27:18;14.25;;;2.72;;
36001;SDS011;22070;50.922;5.430;2023-04-25T09:29:45;10.68;;;2.25;;
36001;SDS011;22070;50.922;5.430;2023-04-25T09:32:12;10.07;;;2.20;;
36001;SDS011;22070;50.922;5.430;2023-04-25T09:34:51;6.82;;;2.42;;
36001;SDS011;22070;50.922;5.430;2023-04-25T09:37:18;8.50;;;2.20;;
36001;SDS011;22070;50.922;5.430;2023-04-25T09:42:22;9.50;;;2.70;;
36001;SDS011;22070;50.922;5.430;2023-04-25T09:44:49;13.38;;;2.78;;
36001;SDS011;22070;50.922;5.430;2023-04-25T09:47:17;10.18;;;2.60;;
36001;SDS011;22070;50.922;5.430;2023-04-25T09:49:46;10.02;;;2.65;;
36001;SDS011;22070;50.922;5.430;2023-04-25T09:52:16;12.70;;;3.30;;
36001;SDS011;22070;50.922;5.430;2023-04-25T09:54:42;21.50;;;2.90;;
36001;SDS011;22070;50.922;5.430;2023-04-25T09:57:10;21.30;;;3.03;;
36001;SDS011;22070;50.922;5.430;2023-04-25T09:59:38;34.55;;;3.70;;
36001;SDS011;22070;50.922;5.430;2023-04-25T10:02:07;11.30;;;2.40;;
36001;SDS011;22070;50.922;5.430;2023-04-25T10:04:34;13.93;;;2.30;;
36001;SDS011;22070;50.922;5.430;2023-04-25T10:07:01;8.82;;;1.92;;
36001;SDS011;22070;50.922;5.430;2023-04-25T10:09:31;6.93;;;1.85;;
36001;SDS011;22070;50.922;5.430;2023-04-25T10:12:00;8.40;;;1.80;;
36001;SDS011;22070;50.922;5.430;2023-04-25T10:14:28;8.57;;;1.80;;
36001;SDS011;22070;50.922;5.430;2023-04-25T10:16:55;10.23;;;1.90;;
36001;SDS011;22070;50.922;5.430;2023-04-25T10:19:22;10.85;;;2.10;;
36001;SDS011;22070;50.922;5.430;2023-04-25T10:21:54;6.03;;;1.42;;
36001;SDS011;22070;50.922;5.430;2023-04-25T10:24:27;16.75;;;2.30;;
36001;SDS011;22070;50.922;5.430;2023-04-25T10:26:53;6.20;;;1.65;;
36001;SDS011;22070;50.922;5.430;2023-04-25T10:29:22;10.30;;;1.75;;
36001;SDS011;22070;50.922;5.430;2023-04-25T10:31:49;6.05;;;1.80;;
36001;SDS011;22070;50.922;5.430;2023-04-25T10:34:15;10.05;;;2.03;;
36001;SDS011;22070;50.922;5.430;2023-04-25T10:39:08;8.13;;;2.20;;
36001;SDS011;22070;50.922;5.430;2023-04-25T10:42:18;7.90;;;1.90;;
36001;SDS011;22070;50.922;5.430;2023-04-25T10:44:30;8.40;;;2.45;;
36001;SDS011;22070;50.922;5.430;2023-04-25T10:46:57;9.70;;;2.00;;
36001;SDS011;22070;50.922;5.430;2023-04-25T10:49:36;8.10;;;2.03;;
36001;SDS011;22070;50.922;5.430;2023-04-25T10:54:55;12.18;;;2.40;;
36001;SDS011;22070;50.922;5.430;2023-04-25T10:57:32;6.50;;;2.00;;
36001;SDS011;22070;50.922;5.430;2023-04-25T11:00:14;7.70;;;1.90;;
36001;SDS011;22070;50.922;5.430;2023-04-25T11:02:45;7.30;;;1.98;;
36001;SDS011;22070;50.922;5.430;2023-04-25T11:07:51;5.70;;;1.45;;
36001;SDS011;22070;50.922;5.430;2023-04-25T11:10:21;4.53;;;1.42;;
36001;SDS011;22070;50.922;5.430;2023-04-25T11:12:53;4.82;;;1.55;;
36001;SDS011;22070;50.922;5.430;2023-04-25T11:15:19;8.25;;;2.05;;
36001;SDS011;22070;50.922;5.430;2023-04-25T11:17:45;7.57;;;1.65;;
36001;SDS011;22070;50.922;5.430;2023-04-25T11:20:11;5.22;;;1.35;;
36001;SDS011;22070;50.922;5.430;2023-04-25T11:22:38;6.70;;;1.85;;
36001;SDS011;22070;50.922;5.430;2023-04-25T11:25:08;7.78;;;1.90;;
36001;SDS011;22070;50.922;5.430;2023-04-25T11:27:37;8.65;;;1.80;;
36001;SDS011;22070;50.922;5.430;2023-04-25T11:30:14;10.45;;;2.60;;
36001;SDS011;22070;50.922;5.430;2023-04-25T11:32:41;19.15;;;6.30;;
36001;SDS011;22070;50.922;5.430;2023-04-25T11:37:34;7.95;;;1.13;;
36001;SDS011;22070;50.922;5.430;2023-04-25T11:40:00;5.63;;;1.40;;
36001;SDS011;22070;50.922;5.430;2023-04-25T11:42:27;11.20;;;2.97;;
36001;SDS011;22070;50.922;5.430;2023-04-25T11:44:52;5.25;;;1.55;;
36001;SDS011;22070;50.922;5.430;2023-04-25T11:47:18;8.18;;;1.55;;
36001;SDS011;22070;50.922;5.430;2023-04-25T11:49:43;4.75;;;1.50;;
36001;SDS011;22070;50.922;5.430;2023-04-25T11:52:09;5.67;;;2.00;;
36001;SDS011;22070;50.922;5.430;2023-04-25T11:54:35;7.67;;;1.20;;
36001;SDS011;22070;50.922;5.430;2023-04-25T11:57:02;5.80;;;1.10;;
36001;SDS011;22070;50.922;5.430;2023-04-25T11:59:28;6.38;;;1.00;;
36001;SDS011;22070;50.922;5.430;2023-04-25T12:01:53;8.53;;;1.03;;
36001;SDS011;22070;50.922;5.430;2023-04-25T12:04:21;3.20;;;0.90;;
36001;SDS011;22070;50.922;5.430;2023-04-25T12:06:48;7.03;;;1.27;;
36001;SDS011;22070;50.922;5.430;2023-04-25T12:09:18;3.60;;;1.00;;
36001;SDS011;22070;50.922;5.430;2023-04-25T12:11:49;6.30;;;1.23;;
36001;SDS011;22070;50.922;5.430;2023-04-25T12:14:25;4.93;;;1.10;;
36001;SDS011;22070;50.922;5.430;2023-04-25T12:16:55;3.47;;;1.20;;
36001;SDS011;22070;50.922;5.430;2023-04-25T12:19:22;4.03;;;1.10;;
36001;SDS011;22070;50.922;5.430;2023-04-25T12:21:49;3.70;;;1.05;;
36001;SDS011;22070;50.922;5.430;2023-04-25T12:24:22;2.97;;;1.10;;
36001;SDS011;22070;50.922;5.430;2023-04-25T12:27:00;6.18;;;1.60;;
36001;SDS011;22070;50.922;5.430;2023-04-25T12:29:29;5.45;;;1.42;;
36001;SDS011;22070;50.922;5.430;2023-04-25T12:31:56;7.03;;;2.72;;
36001;SDS011;22070;50.922;5.430;2023-04-25T12:34:23;4.90;;;1.25;;
36001;SDS011;22070;50.922;5.430;2023-04-25T12:36:49;4.18;;;1.40;;
36001;SDS011;22070;50.922;5.430;2023-04-25T12:39:20;5.93;;;1.60;;
36001;SDS011;22070;50.922;5.430;2023-04-25T12:41:47;6.97;;;1.92;;
36001;SDS011;22070;50.922;5.430;2023-04-25T12:44:13;4.57;;;1.65;;
36001;SDS011;22070;50.922;5.430;2023-04-25T12:46:40;5.85;;;1.30;;
36001;SDS011;22070;50.922;5.430;2023-04-25T12:49:06;2.47;;;1.20;;
36001;SDS011;22070;50.922;5.430;2023-04-25T12:51:33;2.78;;;1.20;;
36001;SDS011;22070;50.922;5.430;2023-04-25T12:56:26;3.17;;;0.75;;
36001;SDS011;22070;50.922;5.430;2023-04-25T12:58:52;3.53;;;1.40;;
36001;SDS011;22070;50.922;5.430;2023-04-25T13:01:19;4.13;;;1.20;;
36001;SDS011;22070;50.922;5.430;2023-04-25T13:03:46;3.95;;;1.00;;
36001;SDS011;22070;50.922;5.430;2023-04-25T13:06:12;4.72;;;1.30;;
36001;SDS011;22070;50.922;5.430;2023-04-25T13:08:38;5.18;;;1.20;;
36001;SDS011;22070;50.922;5.430;2023-04-25T13:11:04;4.47;;;1.20;;
36001;SDS011;22070;50.922;5.430;2023-04-25T13:13:31;3.38;;;1.00;;
36001;SDS011;22070;50.922;5.430;2023-04-25T13:15:57;3.95;;;1.20;;
36001;SDS011;22070;50.922;5.430;2023-04-25T13:18:23;3.95;;;1.15;;
36001;SDS011;22070;50.922;5.430;2023-04-25T13:20:55;5.88;;;1.50;;
36001;SDS011;22070;50.922;5.430;2023-04-25T13:23:21;6.30;;;1.30;;
36001;SDS011;22070;50.922;5.430;2023-04-25T13:25:48;3.38;;;1.02;;
36001;SDS011;22070;50.922;5.430;2023-04-25T13:28:14;5.18;;;1.10;;
36001;SDS011;22070;50.922;5.430;2023-04-25T13:30:40;5.13;;;1.20;;
36001;SDS011;22070;50.922;5.430;2023-04-25T13:33:06;3.65;;;1.10;;
36001;SDS011;22070;50.922;5.430;2023-04-25T13:35:32;7.80;;;2.55;;
36001;SDS011;22070;50.922;5.430;2023-04-25T13:37:58;3.85;;;1.10;;
36001;SDS011;22070;50.922;5.430;2023-04-25T13:40:24;10.47;;;1.50;;
36001;SDS011;22070;50.922;5.430;2023-04-25T13:42:50;4.40;;;1.20;;
36001;SDS011;22070;50.922;5.430;2023-04-25T13:45:16;5.13;;;1.63;;
36001;SDS011;22070;50.922;5.430;2023-04-25T13:47:42;1.93;;;1.17;;
36001;SDS011;22070;50.922;5.430;2023-04-25T13:50:07;6.03;;;1.13;;
36001;SDS011;22070;50.922;5.430;2023-04-25T13:55:00;4.27;;;1.43;;
36001;SDS011;22070;50.922;5.430;2023-04-25T13:57:28;3.75;;;1.80;;
36001;SDS011;22070;50.922;5.430;2023-04-25T14:02:20;4.43;;;1.23;;
36001;SDS011;22070;50.922;5.430;2023-04-25T14:04:46;4.05;;;1.63;;
36001;SDS011;22070;50.922;5.430;2023-04-25T14:09:41;6.05;;;2.33;;
36001;SDS011;22070;50.922;5.430;2023-04-25T14:12:07;3.78;;;1.40;;
36001;SDS011;22070;50.922;5.430;2023-04-25T14:14:32;4.38;;;1.50;;
36001;SDS011;22070;50.922;5.430;2023-04-25T14:16:58;7.90;;;1.50;;
36001;SDS011;22070;50.922;5.430;2023-04-25T14:19:24;4.15;;;1.35;;
36001;SDS011;22070;50.922;5.430;2023-04-25T14:21:49;4.50;;;1.43;;
36001;SDS011;22070;50.922;5.430;2023-04-25T14:24:15;6.27;;;1.20;;
36001;SDS011;22070;50.922;5.430;2023-04-25T14:26:41;4.78;;;1.27;;
36001;SDS011;22070;50.922;5.430;2023-04-25T14:29:07;2.63;;;1.17;;
36001;SDS011;22070;50.922;5.430;2023-04-25T14:31:33;4.93;;;1.10;;
36001;SDS011;22070;50.922;5.430;2023-04-25T14:34:00;6.97;;;2.58;;
36001;SDS011;22070;50.922;5.430;2023-04-25T14:36:29;7.32;;;0.95;;
36001;SDS011;22070;50.922;5.430;2023-04-25T14:38:56;6.00;;;1.08;;
36001;SDS011;22070;50.922;5.430;2023-04-25T14:41:22;3.58;;;1.10;;
36001;SDS011;22070;50.922;5.430;2023-04-25T14:43:48;4.78;;;1.00;;
36001;SDS011;22070;50.922;5.430;2023-04-25T14:46:13;3.75;;;1.02;;
36001;SDS011;22070;50.922;5.430;2023-04-25T14:48:39;4.53;;;1.00;;
36001;SDS011;22070;50.922;5.430;2023-04-25T14:51:05;6.47;;;1.05;;
36001;SDS011;22070;50.922;5.430;2023-04-25T14:53:31;4.50;;;0.88;;
36001;SDS011;22070;50.922;5.430;2023-04-25T14:55:57;2.33;;;0.97;;
36001;SDS011;22070;50.922;5.430;2023-04-25T14:58:22;5.35;;;0.90;;
36001;SDS011;22070;50.922;5.430;2023-04-25T15:00:48;8.27;;;1.27;;
36001;SDS011;22070;50.922;5.430;2023-04-25T15:03:14;3.75;;;1.20;;
36001;SDS011;22070;50.922;5.430;2023-04-25T15:05:41;4.60;;;1.60;;
36001;SDS011;22070;50.922;5.430;2023-04-25T15:08:07;4.63;;;1.13;;
36001;SDS011;22070;50.922;5.430;2023-04-25T15:10:33;7.82;;;1.73;;
36001;SDS011;22070;50.922;5.430;2023-04-25T15:12:59;5.35;;;1.08;;
36001;SDS011;22070;50.922;5.430;2023-04-25T15:15:25;5.17;;;1.10;;
36001;SDS011;22070;50.922;5.430;2023-04-25T15:17:51;5.63;;;1.07;;
36001;SDS011;22070;50.922;5.430;2023-04-25T15:20:19;1.98;;;1.13;;
36001;SDS011;22070;50.922;5.430;2023-04-25T15:22:45;4.10;;;1.10;;
36001;SDS011;22070;50.922;5.430;2023-04-25T15:25:13;5.25;;;1.17;;
36001;SDS011;22070;50.922;5.430;2023-04-25T15:27:41;6.68;;;1.20;;
36001;SDS011;22070;50.922;5.430;2023-04-25T15:30:08;5.63;;;1.20;;